Airfield :
LOGIN :

Register | Disclaimer

   EN    FR    IT 

 










Legend :    VFR   Marginal VFR   IFR   Intensive IFR   Very Intensive IFR
Visi :
Ceiling :
>= 8 km
>= 3000ft
5 to 8 km
1000 to 3000 ft
1500m to 5 km
500 to 1000 ft
800 to 1500m
200 to 500 ft
< 800m
< 200 ft
Symbols :   Thunderstorms  Fog  Heavy snow  Heavy precipitations  Wind > 20 kt
SIGMETs :     Misc.  Thunderstorms  Icing  Turbulence  Mountain Waves  Volcanic Ashes






- Airport Elevation : 220 ft
- IATA code : CWL


EGFF - Cardiff Rhoose

CURRENT METAR :
  • 161820Z 26034G49KT 4000 +SHRA SQ FEW011CB BKN039 06/02 Q0998 RESHRA

EXPIRED METARs :
  • 161750Z AUTO 25023G34KT 9999 OVC033 08/03 Q0996
  • 161720Z AUTO 25021G33KT 9999 SCT031 BKN038 08/04 Q0995
  • 161650Z AUTO 25022G33KT 9999 BKN030 OVC039 08/04 Q0995
  • 161620Z AUTO 25021G31KT 9999 BKN031 09/04 Q0995
  • 161550Z AUTO 25020G32KT 9999 BKN029 OVC037 09/04 Q0994

TAF TAF EGFF
Valid from the 16 at 18:00 until the 17 at 18:00 UTC


161701Z 1618/1718 25022G32KT 9999 FEW010 SCT030
TEMPO 1618/1709 25032G42KT 6000 SHRA
PROB30
TEMPO 1618/1709 4000 +SHRA +TSRAGS BKN010 BKN020CB
BECMG 1709/1712 26018KT
PROB30
TEMPO 1709/1712 4000 +SHRA BKN010
TEMPO 1712/1718 28022G32KT 6000 SHRA
ATIS : +44 1446 729 319



MET'MAP, your aeronautical weather chart ! - Copyright ORBIFLY December 2007 - Disclaimer

ORBIFLY MET'MAP TEAM :

Programming & Development : Alexandra Zaïnal
Concept & original design : Baudouin d'Aumeries
Assistance for programming : Marc-Olivier Méhu
Technical & hardware support : Manuel Goepfert

Contact : metmap@orbifly.com




SOURCES & CREDITS :

   NOAA